Time;durP1;ratioP1;P1;durP2;ratioP2;P2;SDS_P1;SDS_P2;PMS_P1;PMS_P2;Temp;Humidity;BMP_temperature;BMP_pressure;BME280_temperature;BME280_humidity;BME280_pressure;Samples;Min_cycle;Max_cycle;Signal;HPM_P1;HPM_P2
2022/12/23 00:01:56;;;;;;;2.05;1.95;;;;;;;3.01;95.65;99195.88;5106380;28;20039;-67
2022/12/23 00:04:25;;;;;;;4.45;2.67;;;;;;;3.01;95.50;99190.84;5105867;28;20040;-68
2022/12/23 00:06:54;;;;;;;12.57;3.73;;;;;;;3.01;95.22;99195.88;5098028;28;20379;-67
2022/12/23 00:09:22;;;;;;;2.67;2.17;;;;;;;3.00;96.02;99189.16;5107628;28;20306;-67
2022/12/23 00:17:14;;;;;;;2.88;2.45;;;;;;;3.01;95.89;99185.81;5101633;28;20077;-67
2022/12/23 00:19:50;;;;;;;7.55;5.13;;;;;;;3.04;95.57;99185.88;5097823;28;20481;-68
2022/12/23 00:22:19;;;;;;;6.55;2.92;;;;;;;3.05;96.06;99190.09;5106952;28;20063;-67
2022/12/23 00:25:08;;;;;;;1.63;1.52;;;;;;;3.04;96.03;99190.91;5102329;28;20063;-67
2022/12/23 00:27:38;;;;;;;2.60;1.95;;;;;;;3.04;95.59;99201.00;5096240;28;20056;-67
2022/12/23 00:30:10;;;;;;;6.13;4.15;;;;;;;3.04;95.69;99198.47;5111380;28;20067;-69
2022/12/23 00:32:41;;;;;;;4.35;1.73;;;;;;;3.05;95.72;99197.66;5095816;28;20122;-67
2022/12/23 00:35:09;;;;;;;6.22;3.35;;;;;;;3.05;95.64;99195.97;5095433;28;20036;-68
2022/12/23 00:37:38;;;;;;;2.17;1.98;;;;;;;3.05;96.23;99197.66;5095918;28;20040;-67
2022/12/23 00:42:53;;;;;;;1.73;1.52;;;;;;;3.08;96.12;99206.13;5109069;28;20281;-68
2022/12/23 00:45:23;;;;;;;2.72;2.53;;;;;;;3.09;96.16;99195.25;5096378;28;20048;-67
2022/12/23 00:50:33;;;;;;;2.30;2.13;;;;;;;3.12;95.59;99185.22;5108554;28;20079;-67
2022/12/23 00:53:01;;;;;;;5.07;2.42;;;;;;;3.15;96.25;99194.50;5103628;28;20083;-67
2022/12/23 00:55:30;;;;;;;15.40;4.28;;;;;;;3.15;96.16;99190.31;5112766;28;20416;-67
2022/12/23 00:57:59;;;;;;;2.80;2.60;;;;;;;3.15;95.98;99189.47;5108606;28;20497;-67
2022/12/23 01:05:52;;;;;;;2.35;2.15;;;;;;;3.20;96.61;99187.88;5098844;28;20040;-67
2022/12/23 01:08:20;;;;;;;3.60;2.63;;;;;;;3.22;96.24;99183.72;5100396;28;20035;-67
2022/12/23 01:10:49;;;;;;;4.30;4.00;;;;;;;3.22;96.30;99187.09;5116527;28;20048;-67
2022/12/23 01:13:18;;;;;;;1.67;1.57;;;;;;;3.23;96.25;99187.97;5116433;28;20044;-67
2022/12/23 01:15:47;;;;;;;4.03;3.67;;;;;;;3.23;95.91;99188.81;5116344;28;20047;-67
2022/12/23 01:18:17;;;;;;;2.85;1.80;;;;;;;3.23;96.33;99178.72;5116763;28;20553;-67
2022/12/23 01:20:45;;;;;;;6.68;3.42;;;;;;;3.25;96.19;99174.56;5110777;28;20485;-67
2022/12/23 01:23:14;;;;;;;2.53;2.33;;;;;;;3.28;95.94;99167.06;5096447;28;20173;-67
2022/12/23 01:25:43;;;;;;;3.50;2.97;;;;;;;3.29;96.03;99168.75;5094672;28;20542;-67
2022/12/23 01:28:12;;;;;;;3.78;3.47;;;;;;;3.29;96.44;99162.84;5096121;28;20036;-67
2022/12/23 01:30:40;;;;;;;1.83;1.73;;;;;;;3.30;96.38;99167.09;5101213;27;20076;-67
2022/12/23 01:33:09;;;;;;;2.00;1.83;;;;;;;3.35;96.15;99163.00;5111250;28;20038;-67
2022/12/23 01:35:39;;;;;;;3.17;2.92;;;;;;;3.33;96.47;99160.44;5095063;28;20036;-68
2022/12/23 01:38:08;;;;;;;5.13;3.30;;;;;;;3.33;96.17;99157.06;5099961;28;20089;-66
2022/12/23 01:40:38;;;;;;;3.35;3.10;;;;;;;3.32;96.47;99161.25;5106685;28;20093;-66
2022/12/23 01:43:05;;;;;;;;;;;;;;;3.32;96.49;99152.84;5097890;28;20040;-67
2022/12/23 01:45:34;;;;;;;2.80;2.60;;;;;;;3.30;96.49;99155.34;5097706;28;19927;-67
2022/12/23 01:48:08;;;;;;;5.15;4.35;;;;;;;3.29;95.86;99152.78;5097759;28;20481;-67
2022/12/23 01:50:42;;;;;;;9.10;4.60;;;;;;;3.28;96.64;99156.13;5103342;28;20469;-67
2022/12/23 01:53:15;;;;;;;6.05;4.30;;;;;;;3.26;95.88;99157.78;5104975;28;20444;-68
2022/12/23 01:55:49;;;;;;;8.43;5.25;;;;;;;3.21;96.72;99164.41;5107606;28;20074;-66
2022/12/23 01:58:21;;;;;;;7.20;6.25;;;;;;;3.19;96.64;99166.03;5109573;28;20402;-67
2022/12/23 02:12:00;;;;;;;4.47;4.17;;;;;;;3.19;96.71;99148.38;5097658;28;20040;-68
2022/12/23 02:17:29;;;;;;;2.95;2.13;;;;;;;3.20;96.64;99157.63;5107608;28;20042;-67
2022/12/23 02:20:24;;;;;;;3.70;3.45;;;;;;;3.22;96.63;99158.50;5106538;28;20126;-67
2022/12/23 02:23:25;;;;;;;9.75;6.57;;;;;;;3.24;96.55;99149.31;5104826;28;20069;-67
2022/12/23 02:26:15;;;;;;;6.35;5.53;;;;;;;3.23;96.52;99152.66;5094675;28;20052;-66
2022/12/23 02:29:04;;;;;;;17.17;5.75;;;;;;;3.24;97.00;99156.88;5094834;28;20139;-66
2022/12/23 02:31:44;;;;;;;2.13;1.83;;;;;;;3.25;96.42;99158.59;5093208;28;20123;-66
2022/12/23 02:34:20;;;;;;;3.53;3.22;;;;;;;3.26;96.41;99171.19;5092136;28;20493;-68
2022/12/23 02:36:55;;;;;;;4.38;3.95;;;;;;;3.28;96.76;99166.22;5097197;28;20043;-67
2022/12/23 02:39:33;;;;;;;6.03;4.65;;;;;;;3.28;96.90;99158.66;5107817;28;20110;-67
2022/12/23 02:42:08;;;;;;;4.93;4.50;;;;;;;3.29;97.01;99160.34;5111681;28;20043;-67
2022/12/23 02:44:45;;;;;;;2.80;2.60;;;;;;;3.29;96.55;99157.81;5104192;28;20047;-67
2022/12/23 02:47:21;;;;;;;5.82;3.63;;;;;;;3.31;96.49;99146.09;5094068;28;20048;-67
2022/12/23 02:49:55;;;;;;;2.90;2.60;;;;;;;3.31;96.64;99148.63;5105392;28;20115;-67
2022/12/23 02:52:31;;;;;;;6.75;5.10;;;;;;;3.30;97.13;99140.22;5099868;28;20457;-69
2022/12/23 02:55:04;;;;;;;12.20;4.78;;;;;;;3.31;96.58;99146.09;5097502;28;20062;-69
2022/12/23 02:57:37;;;;;;;6.95;4.32;;;;;;;3.31;96.71;99144.41;5096628;28;20131;-67
2022/12/23 03:00:08;;;;;;;5.00;4.60;;;;;;;3.31;97.29;99136.84;5103179;28;20040;-70
2022/12/23 03:02:40;;;;;;;4.93;4.38;;;;;;;3.33;96.91;99134.38;5107480;28;20052;-67
2022/12/23 03:05:25;;;;;;;9.63;3.97;;;;;;;3.34;97.16;99125.97;5101429;28;20393;-67
2022/12/23 03:07:58;;;;;;;9.73;5.53;;;;;;;3.34;97.58;99131.88;5109061;28;20058;-67
2022/12/23 03:10:40;;;;;;;12.73;4.75;;;;;;;3.34;97.31;99109.19;5099177;28;20043;-67
2022/12/23 03:13:21;;;;;;;5.90;5.35;;;;;;;3.37;97.26;99110.91;5110782;28;20085;-67
2022/12/23 03:16:02;;;;;;;2.22;2.05;;;;;;;3.39;97.24;99111.78;5106349;28;20040;-67
2022/12/23 03:18:46;;;;;;;3.75;3.53;;;;;;;3.39;96.90;99100.03;5099619;28;20528;-67
2022/12/23 03:21:24;;;;;;;4.93;4.53;;;;;;;3.41;97.46;99097.53;5094419;28;20414;-67
2022/12/23 03:23:59;;;;;;;3.15;2.88;;;;;;;3.42;97.49;99104.28;5095704;28;20044;-67
2022/12/23 03:26:36;;;;;;;2.53;2.30;;;;;;;3.43;97.15;99110.19;5093318;28;20070;-67
2022/12/23 03:29:13;;;;;;;4.85;3.42;;;;;;;3.41;97.15;99107.59;5094124;28;20044;-67
2022/12/23 03:31:44;;;;;;;4.50;4.10;;;;;;;3.39;97.00;99109.25;5107651;28;20051;-67
2022/12/23 03:34:19;;;;;;;3.60;3.35;;;;;;;3.37;97.44;99095.78;5094043;28;20119;-70
2022/12/23 03:36:51;;;;;;;6.20;4.28;;;;;;;3.38;97.60;99097.50;5093979;28;20044;-67
2022/12/23 03:39:26;;;;;;;4.30;3.97;;;;;;;3.37;96.99;99093.25;5093664;28;20043;-67
2022/12/23 03:42:02;;;;;;;3.15;2.95;;;;;;;3.30;97.53;99088.94;5096247;28;20127;-67
2022/12/23 03:44:37;;;;;;;6.40;3.03;;;;;;;3.32;97.10;99084.75;5096377;28;20050;-67
2022/12/23 03:47:11;;;;;;;6.32;3.65;;;;;;;3.30;97.32;99084.75;5098840;28;20054;-67
2022/12/23 03:49:46;;;;;;;2.65;2.45;;;;;;;3.31;97.70;99088.13;5114134;28;20481;-69
2022/12/23 03:52:19;;;;;;;6.57;5.00;;;;;;;3.29;97.99;99085.53;5097637;28;20052;-66
2022/12/23 03:54:54;;;;;;;9.90;3.38;;;;;;;3.31;97.34;99085.59;5096705;28;20040;-66
2022/12/23 03:57:28;;;;;;;4.85;2.80;;;;;;;3.30;97.83;99088.94;5096339;28;20048;-67
2022/12/23 03:59:57;;;;;;;3.20;2.95;;;;;;;3.29;97.39;99087.22;5097420;28;20052;-67
2022/12/23 04:02:38;;;;;;;13.05;4.43;;;;;;;3.29;97.10;99092.25;5096254;28;20140;-66
2022/12/23 04:05:25;;;;;;;3.28;2.60;;;;;;;3.27;97.59;99094.75;5096712;28;20444;-67
2022/12/23 04:08:00;;;;;;;9.27;3.85;;;;;;;3.30;98.13;99099.00;5106242;28;20039;-67
2022/12/23 04:10:30;;;;;;;3.63;3.25;;;;;;;3.29;97.97;99102.34;5100992;28;20074;-67
2022/12/23 04:12:59;;;;;;;1.95;1.77;;;;;;;3.27;97.63;99093.91;5100934;28;20097;-67
2022/12/23 04:15:29;;;;;;;3.57;3.27;;;;;;;3.21;98.38;99088.75;5106863;28;20053;-67
2022/12/23 04:17:57;;;;;;;;;;;;;;;3.25;98.03;99090.50;5116992;28;20119;-66
2022/12/23 04:20:27;;;;;;;1.75;1.65;;;;;;;3.24;97.67;99094.69;5103068;28;20362;-67
2022/12/23 04:22:57;;;;;;;4.40;3.88;;;;;;;3.23;98.30;99090.50;5108037;28;20051;-67
2022/12/23 04:25:26;;;;;;;2.47;2.28;;;;;;;3.21;98.21;99088.75;5099179;28;20494;-67
2022/12/23 04:27:55;;;;;;;1.30;1.20;;;;;;;3.22;98.08;99080.34;5099714;28;20043;-67
2022/12/23 04:30:23;;;;;;;3.63;3.33;;;;;;;3.22;97.92;99075.31;5113852;28;20565;-66
2022/12/23 04:33:01;;;;;;;2.60;2.38;;;;;;;3.21;98.20;99078.69;5112130;28;20040;-67
2022/12/23 04:35:31;;;;;;;11.68;5.55;;;;;;;3.21;97.89;99078.69;5096847;28;20543;-67
2022/12/23 04:38:00;;;;;;;4.38;3.95;;;;;;;3.22;98.28;99080.34;5097181;28;20388;-67
2022/12/23 04:40:29;;;;;;;1.92;1.80;;;;;;;3.22;97.94;99081.22;5096950;28;20082;-67
2022/12/23 04:42:58;;;;;;;4.13;2.50;;;;;;;3.23;98.16;99077.03;5096660;28;20051;-67
2022/12/23 04:45:26;;;;;;;8.10;5.25;;;;;;;3.22;98.19;99078.69;5103593;28;20144;-67
2022/12/23 04:47:55;;;;;;;4.83;3.30;;;;;;;3.22;97.75;99075.31;5117221;28;20036;-66
2022/12/23 04:50:24;;;;;;;4.18;3.78;;;;;;;3.22;98.43;99070.28;5116913;28;20048;-67
2022/12/23 04:52:55;;;;;;;15.27;4.57;;;;;;;3.22;98.08;99080.34;5117135;28;20439;-67
2022/12/23 04:55:24;;;;;;;3.83;3.55;;;;;;;3.18;98.08;99074.44;5117153;28;20054;-66
2022/12/23 04:57:52;;;;;;;6.35;5.30;;;;;;;3.21;98.33;99078.69;5106756;27;20040;-67
2022/12/23 05:00:22;;;;;;;3.85;3.38;;;;;;;3.20;98.38;99071.91;5110667;28;20036;-67
2022/12/23 05:02:51;;;;;;;5.30;3.87;;;;;;;3.21;97.82;99076.16;5108495;28;20560;-67
2022/12/23 05:05:20;;;;;;;5.43;3.95;;;;;;;3.16;97.94;99062.63;5095582;28;20304;-67
2022/12/23 05:07:50;;;;;;;4.25;3.85;;;;;;;3.20;98.41;99066.88;5096137;28;20086;-67
2022/12/23 05:10:20;;;;;;;4.00;3.63;;;;;;;3.19;98.39;99067.72;5115087;28;20046;-68
2022/12/23 05:12:49;;;;;;;3.65;3.00;;;;;;;3.18;98.22;99064.34;5113429;28;20101;-67
2022/12/23 05:15:18;;;;;;;3.35;2.92;;;;;;;3.16;98.21;99060.94;5105444;28;20089;-68
2022/12/23 05:17:46;;;;;;;4.03;2.20;;;;;;;3.16;97.89;99060.09;5116997;28;20077;-68
2022/12/23 05:20:16;;;;;;;;;;;;;;;3.16;98.37;99060.09;5105581;28;20044;-67
2022/12/23 05:22:44;;;;;;;3.05;2.53;;;;;;;3.17;98.41;99071.84;5096149;28;19920;-67
2022/12/23 05:25:13;;;;;;;4.30;3.90;;;;;;;3.17;98.44;99071.84;5098180;28;20035;-67
2022/12/23 05:27:43;;;;;;;2.95;2.75;;;;;;;3.19;98.33;99066.03;5099492;28;20332;-67
2022/12/23 05:30:12;;;;;;;5.63;3.80;;;;;;;3.19;98.58;99065.19;5103416;28;20118;-67
2022/12/23 05:32:41;;;;;;;3.63;2.80;;;;;;;3.17;97.85;99067.66;5116076;28;20047;-67
2022/12/23 05:35:10;;;;;;;9.90;4.75;;;;;;;3.18;97.86;99074.44;5105159;28;20123;-68
2022/12/23 05:37:39;;;;;;;9.98;5.75;;;;;;;3.19;97.74;99075.28;5095601;28;20044;-67
2022/12/23 05:40:09;;;;;;;2.15;1.98;;;;;;;3.20;97.79;99072.78;5095531;28;20106;-67
2022/12/23 05:42:38;;;;;;;5.93;5.32;;;;;;;3.23;98.01;99082.06;5095844;28;20040;-67
2022/12/23 05:45:09;;;;;;;5.25;3.20;;;;;;;3.22;98.41;99080.34;5095441;28;20119;-67
2022/12/23 05:47:38;;;;;;;3.92;3.20;;;;;;;3.23;98.30;99099.72;5108943;28;20050;-67
2022/12/23 05:50:08;;;;;;;4.67;3.87;;;;;;;3.22;98.34;99105.56;5115447;28;20040;-67
2022/12/23 05:52:37;;;;;;;3.78;3.42;;;;;;;3.14;98.41;99102.91;5116065;27;20287;-67
2022/12/23 05:55:07;;;;;;;3.40;2.00;;;;;;;3.03;98.36;99106.03;5115849;28;20077;-67
2022/12/23 05:57:36;;;;;;;5.63;4.20;;;;;;;2.89;98.35;99110.81;5116109;28;20459;-67
2022/12/23 06:00:05;;;;;;;2.40;2.00;;;;;;;2.84;98.31;99111.53;5115890;28;20122;-67
2022/12/23 06:02:41;;;;;;;16.00;4.50;;;;;;;2.78;97.98;99107.25;5109433;28;20164;-67
2022/12/23 06:05:15;;;;;;;3.40;3.17;;;;;;;2.78;98.05;99109.75;5095618;28;20552;-67
2022/12/23 06:07:43;;;;;;;2.97;2.70;;;;;;;2.81;98.64;99121.56;5105270;28;20127;-70
2022/12/23 06:10:12;;;;;;;3.30;3.00;;;;;;;2.84;98.35;99129.16;5094727;28;20090;-66
2022/12/23 06:12:41;;;;;;;3.38;3.08;;;;;;;2.86;98.77;99135.06;5093891;28;20098;-66
2022/12/23 06:15:10;;;;;;;3.13;2.90;;;;;;;2.86;98.73;99128.38;5095239;28;20028;-66
2022/12/23 06:17:41;;;;;;;3.95;3.55;;;;;;;2.85;98.42;99125.84;5104188;28;20131;-67
2022/12/23 06:20:11;;;;;;;2.47;2.33;;;;;;;2.87;97.91;99119.16;5102913;28;20044;-67
2022/12/23 06:22:48;;;;;;;2.38;2.13;;;;;;;2.88;97.93;99136.00;5097402;28;20118;-67
2022/12/23 06:25:17;;;;;;;11.60;6.90;;;;;;;2.83;97.93;99130.00;5109370;28;20560;-67
2022/12/23 06:27:46;;;;;;;2.73;2.53;;;;;;;2.83;98.19;99128.34;5095957;28;20119;-67
2022/12/23 06:30:15;;;;;;;12.30;6.00;;;;;;;2.87;98.62;99131.75;5100152;28;20043;-67
2022/12/23 06:32:45;;;;;;;4.07;2.50;;;;;;;2.89;97.92;99125.06;5114936;28;20039;-66
2022/12/23 06:35:14;;;;;;;2.00;1.83;;;;;;;2.91;98.21;99123.44;5103258;28;20409;-67
2022/12/23 06:37:43;;;;;;;4.38;3.38;;;;;;;2.91;98.39;99129.31;5098927;28;20492;-68
2022/12/23 06:40:12;;;;;;;;;;;;;;;2.93;98.18;99131.91;5108596;28;20044;-68
2022/12/23 06:42:41;;;;;;;1.67;1.58;;;;;;;2.93;98.64;99126.84;5106843;28;19923;-67
2022/12/23 06:45:11;;;;;;;2.50;2.30;;;;;;;2.95;98.00;99126.03;5104980;28;20458;-68
2022/12/23 06:47:39;;;;;;;5.43;3.05;;;;;;;2.95;97.96;99121.00;5104345;28;20051;-67
2022/12/23 06:50:10;;;;;;;18.27;2.40;;;;;;;2.96;98.57;99106.75;5104787;28;20040;-67
2022/12/23 06:52:39;;;;;;;10.13;4.72;;;;;;;3.04;98.05;99110.28;5102851;28;20096;-67
2022/12/23 06:55:08;;;;;;;2.25;2.05;;;;;;;3.05;98.54;99109.44;5099162;28;20100;-67
2022/12/23 06:57:37;;;;;;;16.52;4.32;;;;;;;3.05;98.49;99104.38;5107631;28;20044;-67
2022/12/23 07:00:07;;;;;;;5.00;3.70;;;;;;;3.06;98.38;99101.06;5110760;27;20039;-67
2022/12/23 07:02:36;;;;;;;4.75;4.30;;;;;;;3.09;98.28;99101.13;5101002;28;20482;-66
2022/12/23 07:05:06;;;;;;;3.20;2.93;;;;;;;3.11;98.42;99102.00;5098744;28;20439;-67
2022/12/23 07:07:36;;;;;;;5.40;4.13;;;;;;;3.11;98.63;99091.91;5104967;28;20461;-66
2022/12/23 07:10:06;;;;;;;6.32;5.57;;;;;;;3.15;98.63;99104.63;5096104;28;20044;-67
2022/12/23 07:12:35;;;;;;;3.92;3.58;;;;;;;3.17;97.97;99097.94;5097473;28;20048;-66
2022/12/23 07:15:06;;;;;;;7.03;5.10;;;;;;;3.21;98.54;99098.84;5100182;28;20055;-66
2022/12/23 07:17:35;;;;;;;5.22;3.75;;;;;;;3.24;98.12;99108.97;5108546;27;20127;-66
2022/12/23 07:20:04;;;;;;;3.67;3.40;;;;;;;3.27;98.67;99104.84;5134764;27;20485;-67
2022/12/23 07:22:33;;;;;;;2.08;1.88;;;;;;;3.30;98.50;99109.09;5121014;27;20477;-67
2022/12/23 07:25:03;;;;;;;1.17;1.15;;;;;;;3.31;98.43;99098.19;5113679;28;20078;-66
2022/12/23 07:27:32;;;;;;;3.08;2.88;;;;;;;3.33;98.08;99109.16;5115382;27;20078;-66
2022/12/23 07:30:01;;;;;;;1.45;1.35;;;;;;;3.33;98.64;99109.16;5125524;28;20039;-66
2022/12/23 07:32:31;;;;;;;3.55;3.25;;;;;;;3.35;98.28;99107.50;5113981;28;20043;-66
2022/12/23 07:34:59;;;;;;;6.22;3.13;;;;;;;3.36;98.18;99099.09;5114040;28;20046;-66
2022/12/23 07:37:29;;;;;;;3.97;2.33;;;;;;;3.33;98.59;99094.03;5114331;28;20032;-66
2022/12/23 07:39:57;;;;;;;2.80;2.53;;;;;;;3.33;98.33;99086.47;5113874;28;20070;-66
2022/12/23 07:42:35;;;;;;;2.58;2.38;;;;;;;3.35;98.27;99087.34;5113918;28;20489;-66
2022/12/23 07:45:14;;;;;;;1.65;1.55;;;;;;;3.37;98.62;99081.50;5114144;28;20122;-66
2022/12/23 07:47:43;;;;;;;2.90;2.70;;;;;;;3.37;98.51;99073.09;5134632;28;20435;-66
2022/12/23 07:50:12;;;;;;;4.93;4.10;;;;;;;3.40;98.60;99070.63;5092510;28;20556;-66
2022/12/23 07:52:41;;;;;;;3.80;3.47;;;;;;;3.38;98.70;99070.56;5102098;28;20134;-66
2022/12/23 07:55:10;;;;;;;1.67;1.58;;;;;;;3.39;98.33;99072.28;5096308;28;20058;-66
2022/12/23 07:57:40;;;;;;;;;;;;;;;3.41;98.71;99071.47;5108974;28;20123;-67
2022/12/23 08:00:11;;;;;;;5.55;3.40;;;;;;;3.43;98.23;99064.78;5095727;28;20006;-66
2022/12/23 08:02:41;;;;;;;3.65;2.92;;;;;;;3.42;98.05;99053.84;5096318;28;20044;-66
2022/12/23 08:05:10;;;;;;;8.13;5.90;;;;;;;3.39;98.72;99044.53;5101770;28;20048;-67
2022/12/23 08:07:39;;;;;;;4.93;3.78;;;;;;;3.48;98.66;99050.59;5096311;28;20497;-67
2022/12/23 08:10:09;;;;;;;2.97;2.73;;;;;;;3.54;98.62;99069.19;5094024;28;20099;-67
2022/12/23 08:12:40;;;;;;;5.05;4.35;;;;;;;3.57;98.74;99069.25;5093634;28;20389;-67
2022/12/23 08:15:09;;;;;;;2.67;2.47;;;;;;;3.62;98.53;99090.34;5103208;28;20047;-67
2022/12/23 08:17:38;;;;;;;4.50;4.10;;;;;;;3.69;98.47;99094.69;5104953;28;20044;-67
2022/12/23 08:20:08;;;;;;;3.78;2.97;;;;;;;3.73;98.21;99091.38;5093530;28;20047;-66
2022/12/23 08:22:37;;;;;;;3.15;2.40;;;;;;;3.73;98.56;99083.81;5092995;28;20039;-67
2022/12/23 08:25:06;;;;;;;4.60;4.10;;;;;;;3.73;98.42;99091.38;5096242;28;20040;-67
2022/12/23 08:27:35;;;;;;;1.67;1.58;;;;;;;3.77;98.64;99082.16;5108271;28;20296;-67
2022/12/23 08:30:07;;;;;;;5.63;4.00;;;;;;;3.79;98.78;99073.78;5113467;28;20070;-67
2022/12/23 08:32:36;;;;;;;6.70;2.53;;;;;;;3.81;98.69;99068.78;5113743;28;20279;-66
2022/12/23 08:35:05;;;;;;;3.57;3.23;;;;;;;3.77;98.55;99060.31;5109920;28;20101;-67
2022/12/23 08:37:34;;;;;;;2.50;2.28;;;;;;;3.84;98.46;99056.22;5094521;28;20371;-67
2022/12/23 08:40:03;;;;;;;5.85;5.25;;;;;;;3.80;98.55;99062.88;5095421;28;20126;-67
2022/12/23 08:42:31;;;;;;;7.95;3.42;;;;;;;3.77;98.57;99067.03;5096762;28;20043;-67
2022/12/23 08:45:01;;;;;;;6.60;5.03;;;;;;;3.80;98.57;99067.94;5099121;28;20043;-67
2022/12/23 08:47:31;;;;;;;3.45;3.15;;;;;;;3.84;98.29;99059.59;5111548;28;20032;-69
2022/12/23 08:50:00;;;;;;;2.72;2.53;;;;;;;3.88;98.48;99056.31;5098966;28;20040;-68
2022/12/23 08:52:28;;;;;;;6.68;3.88;;;;;;;3.92;98.46;99052.13;5066992;28;20075;-67
2022/12/23 08:54:57;;;;;;;1.95;1.85;;;;;;;3.95;98.61;99048.00;5066157;28;20071;-67
2022/12/23 08:57:27;;;;;;;4.40;2.33;;;;;;;3.98;98.55;99040.44;5061716;28;20036;-67
2022/12/23 08:59:56;;;;;;;4.15;3.05;;;;;;;4.00;98.61;99028.72;5063068;28;20037;-69
2022/12/23 09:02:25;;;;;;;3.93;3.63;;;;;;;4.03;98.17;99033.78;5064509;28;20045;-67
2022/12/23 09:04:55;;;;;;;2.10;1.98;;;;;;;4.11;98.33;99050.72;5060983;28;20561;-67
2022/12/23 09:07:24;;;;;;;4.20;2.83;;;;;;;4.18;98.75;99076.09;5058737;28;20450;-67
2022/12/23 09:09:53;;;;;;;1.42;1.33;;;;;;;4.21;98.57;99065.19;5072220;28;20040;-67
2022/12/23 09:12:21;;;;;;;1.63;1.52;;;;;;;4.22;98.28;99056.81;5072791;28;20033;-67
2022/12/23 09:14:50;;;;;;;6.05;4.15;;;;;;;4.24;98.52;99050.09;5063457;28;20135;-67
2022/12/23 09:17:19;;;;;;;5.30;3.90;;;;;;;4.28;98.31;99061.91;5072089;28;20123;-67
2022/12/23 09:19:48;;;;;;;2.10;1.93;;;;;;;4.24;98.35;99060.19;5057820;28;20059;-67
2022/12/23 09:22:22;;;;;;;4.00;3.67;;;;;;;4.21;98.40;99055.09;5056372;28;20297;-67
2022/12/23 09:24:50;;;;;;;6.35;4.25;;;;;;;4.24;98.56;99045.91;5057884;28;20132;-67
2022/12/23 09:27:19;;;;;;;10.93;4.15;;;;;;;4.30;98.76;99048.47;5071502;28;20076;-67
2022/12/23 09:29:48;;;;;;;0.85;0.85;;;;;;;4.33;98.16;99035.06;5066684;28;20119;-67
2022/12/23 09:32:17;;;;;;;2.33;1.80;;;;;;;4.34;98.47;99031.72;5057040;28;20494;-67
2022/12/23 09:34:46;;;;;;;2.90;2.58;;;;;;;4.40;98.30;99031.78;5058957;28;20048;-67
2022/12/23 09:37:15;;;;;;;3.38;3.10;;;;;;;4.43;98.41;99036.88;5068173;28;20078;-67
2022/12/23 09:39:45;;;;;;;;;;;;;;;4.46;98.41;99034.41;5071121;28;20067;-70
2022/12/23 09:42:40;;;;;;;2.20;2.00;;;;;;;4.49;98.25;99036.94;5064836;28;19920;-67
2022/12/23 09:45:21;;;;;;;1.48;1.38;;;;;;;4.49;98.19;99021.78;5066921;28;20044;-67
2022/12/23 09:47:51;;;;;;;3.08;2.88;;;;;;;4.49;98.23;99019.25;5052935;28;20057;-67
2022/12/23 09:50:26;;;;;;;1.40;1.30;;;;;;;4.50;98.36;99013.38;5062337;28;20479;-67
2022/12/23 09:53:01;;;;;;;2.33;1.27;;;;;;;4.53;97.93;99023.53;5103402;28;20071;-67
2022/12/23 09:55:49;;;;;;;2.13;1.95;;;;;;;4.56;98.53;99019.34;5098049;28;20043;-67
2022/12/23 09:58:29;;;;;;;3.67;3.17;;;;;;;4.58;98.26;99021.94;5100986;28;20040;-67
2022/12/23 10:01:11;;;;;;;4.78;4.35;;;;;;;4.58;98.12;99026.97;5103459;28;20047;-67
2022/12/23 10:04:05;;;;;;;1.83;1.73;;;;;;;4.59;97.98;99019.41;5094385;28;20512;-67
2022/12/23 10:06:38;;;;;;;1.83;1.73;;;;;;;4.58;97.98;99015.16;5094273;28;20393;-67
2022/12/23 10:09:10;;;;;;;7.00;3.95;;;;;;;4.49;98.15;99001.56;5094944;28;20032;-67
2022/12/23 10:11:45;;;;;;;2.30;2.10;;;;;;;4.48;98.00;98999.91;5094649;28;20126;-67
2022/12/23 10:14:19;;;;;;;2.28;1.90;;;;;;;4.45;97.76;99004.91;5098643;28;20046;-67
2022/12/23 10:16:52;;;;;;;4.63;4.22;;;;;;;4.44;97.93;99000.69;5102745;28;20046;-67
2022/12/23 10:19:26;;;;;;;3.88;3.15;;;;;;;4.47;97.84;99009.16;5102356;28;20054;-67
2022/12/23 10:22:02;;;;;;;1.40;1.30;;;;;;;4.50;98.10;99008.34;5115156;28;20131;-67
2022/12/23 10:24:37;;;;;;;3.75;3.45;;;;;;;4.50;98.12;99004.13;5102251;28;20048;-67
2022/12/23 10:27:22;;;;;;;4.55;3.22;;;;;;;4.51;97.79;99010.06;5094942;28;20401;-67
2022/12/23 10:29:51;;;;;;;3.20;2.72;;;;;;;4.54;98.07;99010.06;5094600;28;20516;-67
2022/12/23 10:32:27;;;;;;;2.95;2.75;;;;;;;4.55;98.02;99000.00;5094533;28;20051;-67
2022/12/23 10:35:05;;;;;;;3.15;2.75;;;;;;;4.60;98.02;98990.78;5094859;28;20093;-66
2022/12/23 10:37:40;;;;;;;3.33;3.03;;;;;;;4.62;97.98;98985.75;5096835;28;20557;-67
2022/12/23 10:40:20;;;;;;;2.55;2.35;;;;;;;4.67;98.02;98981.59;5109605;28;20039;-67
2022/12/23 10:43:00;;;;;;;3.17;2.90;;;;;;;4.68;98.11;98975.69;5095909;28;20141;-66
2022/12/23 10:45:45;;;;;;;5.32;3.67;;;;;;;4.76;97.95;98981.69;5102165;28;20040;-67
2022/12/23 10:48:24;;;;;;;3.33;3.03;;;;;;;4.74;97.88;98988.41;5114573;28;20044;-67
2022/12/23 10:51:01;;;;;;;3.78;3.47;;;;;;;4.76;97.86;99001.91;5114656;28;20131;-67
2022/12/23 10:53:35;;;;;;;6.55;2.30;;;;;;;4.78;98.02;98997.72;5114151;28;20043;-67
2022/12/23 10:56:06;;;;;;;1.38;1.27;;;;;;;4.76;97.83;98991.81;5105367;28;20461;-67
2022/12/23 10:58:41;;;;;;;2.28;2.08;;;;;;;4.79;98.08;98996.91;5096887;27;20047;-68
2022/12/23 11:01:13;;;;;;;6.22;4.07;;;;;;;4.87;97.88;99004.56;5101598;28;20028;-67
2022/12/23 11:04:01;;;;;;;4.63;2.75;;;;;;;4.94;97.80;99004.66;5098280;28;20488;-67
2022/12/23 11:06:32;;;;;;;1.80;1.67;;;;;;;4.97;97.74;99012.25;5101530;28;20072;-67
2022/12/23 11:09:06;;;;;;;2.40;2.03;;;;;;;5.03;97.77;99006.41;5105198;28;20096;-67
2022/12/23 11:11:57;;;;;;;7.07;6.40;;;;;;;5.09;97.88;99002.25;5101857;28;20044;-67
2022/12/23 11:14:36;;;;;;;5.03;4.22;;;;;;;5.13;97.87;99019.19;5092234;28;20051;-67
2022/12/23 11:17:17;;;;;;;2.15;2.05;;;;;;;5.15;97.54;99020.03;5094104;28;20516;-67
2022/12/23 11:19:46;;;;;;;3.45;3.15;;;;;;;5.18;98.06;99011.63;5106806;28;20130;-67
2022/12/23 11:22:24;;;;;;;1.80;1.70;;;;;;;5.18;97.57;99006.56;5114135;28;20043;-67
2022/12/23 11:24:52;;;;;;;4.00;3.30;;;;;;;5.18;97.63;98997.28;5114086;28;20039;-67
2022/12/23 11:27:21;;;;;;;3.78;3.42;;;;;;;5.16;97.85;98998.13;5104721;28;20134;-67
2022/12/23 11:29:54;;;;;;;1.42;1.33;;;;;;;5.12;97.82;98991.34;5097541;28;20102;-67
2022/12/23 11:32:26;;;;;;;4.97;3.67;;;;;;;5.11;97.57;99000.59;5102323;28;20044;-67
2022/12/23 11:34:56;;;;;;;3.00;2.80;;;;;;;5.12;97.56;98997.25;5094160;28;20044;-67
2022/12/23 11:37:35;;;;;;;6.45;3.88;;;;;;;5.13;97.96;98991.38;5098010;28;20081;-66
2022/12/23 11:40:07;;;;;;;9.20;4.90;;;;;;;5.11;98.06;98985.41;5111587;28;20047;-67
2022/12/23 11:42:35;;;;;;;4.30;2.83;;;;;;;5.10;97.77;98982.88;5131278;27;20085;-66
2022/12/23 11:45:07;;;;;;;2.67;2.47;;;;;;;5.09;97.90;98984.56;5114159;28;20462;-66
2022/12/23 11:47:39;;;;;;;2.25;2.05;;;;;;;5.14;97.39;98984.59;5113767;28;20048;-67
2022/12/23 11:50:27;;;;;;;4.75;4.40;;;;;;;5.18;97.54;98982.13;5104968;28;20490;-67
2022/12/23 11:53:13;;;;;;;2.40;2.08;;;;;;;5.21;97.96;98981.28;5092987;28;20052;-67
2022/12/23 11:55:57;;;;;;;1.38;1.27;;;;;;;5.21;98.02;98986.34;5093175;28;20119;-67
2022/12/23 11:58:29;;;;;;;3.35;3.05;;;;;;;5.20;97.57;98985.53;5093747;28;20067;-67
2022/12/23 12:01:01;;;;;;;5.28;3.72;;;;;;;5.18;97.48;98979.56;5092749;28;20572;-66
2022/12/23 12:03:34;;;;;;;4.22;3.53;;;;;;;5.26;97.78;98995.69;5093579;28;20588;-66
2022/12/23 12:06:06;;;;;;;5.38;4.82;;;;;;;5.27;97.85;98999.06;5093479;28;20061;-66
2022/12/23 12:08:37;;;;;;;8.35;3.25;;;;;;;5.31;97.66;99006.69;5093273;28;20036;-66
2022/12/23 12:11:13;;;;;;;3.28;3.03;;;;;;;5.33;97.61;99021.88;5096647;28;20047;-66
2022/12/23 12:13:45;;;;;;;1.85;1.55;;;;;;;5.36;97.80;99011.78;5097554;28;20489;-66
2022/12/23 12:16:32;;;;;;;2.13;1.92;;;;;;;5.36;97.79;99022.78;5097220;28;20094;-66
2022/12/23 12:19:05;;;;;;;2.45;2.20;;;;;;;5.28;97.76;99001.59;5097231;28;20090;-66
2022/12/23 12:21:38;;;;;;;8.50;4.20;;;;;;;5.38;97.53;99010.97;5097106;28;20051;-66
2022/12/23 12:24:15;;;;;;;4.93;3.55;;;;;;;5.40;97.42;99009.31;5097090;28;20054;-66
2022/12/23 12:26:51;;;;;;;7.05;2.67;;;;;;;5.42;97.35;99007.63;5097067;28;20051;-67
2022/12/23 12:29:27;;;;;;;4.00;3.17;;;;;;;5.43;97.64;99019.47;5095635;28;20094;-66
2022/12/23 12:32:00;;;;;;;7.05;3.67;;;;;;;5.40;97.84;99019.41;5096957;28;20470;-66
2022/12/23 12:34:37;;;;;;;3.00;2.80;;;;;;;5.45;97.73;99026.22;5097114;28;20571;-66
2022/12/23 12:37:20;;;;;;;2.33;2.17;;;;;;;5.40;97.62;99024.47;5097118;28;20508;-67
2022/12/23 12:39:54;;;;;;;3.58;2.90;;;;;;;5.40;97.25;99019.41;5096833;28;20063;-67